Time;durP1;ratioP1;P1;durP2;ratioP2;P2;SDS_P1;SDS_P2;PMS_P1;PMS_P2;Temp;Humidity;BMP_temperature;BMP_pressure;BME280_temperature;BME280_humidity;BME280_pressure;Samples;Min_cycle;Max_cycle;Signal;HPM_P1;HPM_P2
2021/04/01 00:01:52;;;;;;;6.33;5.70;;;16.90;49.00;;;;;;5038166;28;20190;-84
2021/04/01 00:04:17;;;;;;;7.67;5.30;;;16.90;48.60;;;;;;5038833;28;20273;-84
2021/04/01 00:06:43;;;;;;;5.93;5.33;;;17.00;48.40;;;;;;5038902;28;20187;-84
2021/04/01 00:09:09;;;;;;;6.37;5.13;;;17.00;48.20;;;;;;5039285;28;20267;-84
2021/04/01 00:11:35;;;;;;;6.07;5.13;;;17.00;47.90;;;;;;5038079;28;20228;-84
2021/04/01 00:14:05;;;;;;;6.07;5.10;;;16.90;48.40;;;;;;5038784;28;20219;-84
2021/04/01 00:16:34;;;;;;;8.33;5.70;;;17.00;48.00;;;;;;5038398;28;20203;-84
2021/04/01 00:19:01;;;;;;;7.67;5.67;;;17.10;48.30;;;;;;5038888;28;20192;-84
2021/04/01 00:21:27;;;;;;;8.37;6.10;;;17.10;49.00;;;;;;5038864;28;20198;-84
2021/04/01 00:23:54;;;;;;;7.47;5.37;;;16.90;49.80;;;;;;5038576;28;20560;-84
2021/04/01 00:26:20;;;;;;;7.50;5.70;;;16.80;49.00;;;;;;5038755;28;20184;-84
2021/04/01 00:28:46;;;;;;;6.87;5.33;;;16.90;49.60;;;;;;5038416;28;20548;-84
2021/04/01 00:31:12;;;;;;;6.03;5.43;;;16.80;49.80;;;;;;5037961;28;20207;-84
2021/04/01 00:33:37;;;;;;;8.30;5.60;;;16.60;50.20;;;;;;5039917;28;20220;-84
2021/04/01 00:36:06;;;;;;;7.27;6.10;;;16.60;50.40;;;;;;5038473;28;20195;-85
2021/04/01 00:38:32;;;;;;;7.10;5.50;;;16.60;50.00;;;;;;5038628;28;20179;-84
2021/04/01 00:40:58;;;;;;;8.10;4.83;;;16.60;50.20;;;;;;5038415;28;20617;-84
2021/04/01 00:43:24;;;;;;;6.50;5.70;;;16.50;50.10;;;;;;5038184;28;20187;-84
2021/04/01 00:45:49;;;;;;;7.47;5.37;;;16.60;50.00;;;;;;5036875;28;20649;-84
2021/04/01 00:48:15;;;;;;;5.50;4.80;;;16.60;50.00;;;;;;5037765;28;20180;-85
2021/04/01 00:50:41;;;;;;;6.33;5.00;;;16.70;49.80;;;;;;5036384;28;20215;-84
2021/04/01 00:53:06;;;;;;;7.57;5.80;;;16.70;50.30;;;;;;5038142;28;20293;-84
2021/04/01 00:55:32;;;;;;;5.20;4.70;;;16.70;49.60;;;;;;5037667;28;20656;-84
2021/04/01 00:58:02;;;;;;;8.83;5.77;;;16.60;49.10;;;;;;5036760;28;20259;-84
2021/04/01 01:00:31;;;;;;;7.40;5.20;;;16.40;49.50;;;;;;5038591;28;20210;-84
2021/04/01 01:02:57;;;;;;;5.70;4.93;;;16.20;50.10;;;;;;5040826;28;20557;-84
2021/04/01 01:05:28;;;;;;;7.33;5.07;;;16.10;50.60;;;;;;5041362;28;20181;-85
2021/04/01 01:07:54;;;;;;;6.20;5.67;;;16.10;50.20;;;;;;5040558;28;20169;-84
2021/04/01 01:10:29;;;;;;;5.30;4.80;;;16.00;50.20;;;;;;5040843;28;20259;-84
2021/04/01 01:12:57;;;;;;;6.77;5.10;;;15.80;50.50;;;;;;5042379;28;20192;-84
2021/04/01 01:15:24;;;;;;;5.10;4.60;;;15.80;50.90;;;;;;5040874;28;20518;-84
2021/04/01 01:17:54;;;;;;;5.57;5.07;;;16.00;50.30;;;;;;5023406;28;20175;-83
2021/04/01 01:20:26;;;;;;;8.87;5.73;;;16.00;50.90;;;;;;5044204;28;20194;-84
2021/04/01 01:22:52;;;;;;;7.13;5.20;;;15.90;51.40;;;;;;5023272;28;20260;-83
2021/04/01 01:25:20;;;;;;;6.03;4.80;;;15.80;51.40;;;;;;5021611;28;20191;-83
2021/04/01 01:27:48;;;;;;;6.03;5.17;;;15.80;51.40;;;;;;5039256;28;20188;-84
2021/04/01 01:30:17;;;;;;;5.87;5.10;;;15.90;51.20;;;;;;5040418;28;20254;-84
2021/04/01 01:32:46;;;;;;;5.80;4.90;;;15.90;51.10;;;;;;5039281;28;20221;-84
2021/04/01 01:35:37;;;;;;;7.57;5.00;;;15.80;51.00;;;;;;5039246;28;20187;-84
2021/04/01 01:38:07;;;;;;;6.40;5.40;;;15.80;51.30;;;;;;5034685;28;20193;-84
2021/04/01 01:40:33;;;;;;;6.00;5.00;;;15.80;51.30;;;;;;5038701;28;20791;-84
2021/04/01 01:43:02;;;;;;;5.70;4.80;;;15.80;51.70;;;;;;5038829;28;20563;-84
2021/04/01 01:45:28;;;;;;;5.67;4.93;;;15.80;51.80;;;;;;5038512;28;20180;-84
2021/04/01 01:47:55;;;;;;;5.70;5.00;;;15.80;51.70;;;;;;5038260;28;20189;-83
2021/04/01 01:50:23;;;;;;;7.60;4.97;;;15.70;51.50;;;;;;5038694;28;20201;-84
2021/04/01 01:52:49;;;;;;;5.40;5.00;;;15.70;51.80;;;;;;5038895;28;20207;-83
2021/04/01 01:55:14;;;;;;;7.57;5.40;;;15.70;52.00;;;;;;5038994;28;20544;-83
2021/04/01 01:57:41;;;;;;;4.73;4.33;;;15.60;51.90;;;;;;5038168;28;20188;-83
2021/04/01 02:00:16;;;;;;;6.50;4.80;;;15.60;52.20;;;;;;5037885;28;20209;-83
2021/04/01 02:02:56;;;;;;;5.40;4.87;;;15.50;52.50;;;;;;5038197;28;20181;-84
2021/04/01 02:05:23;;;;;;;5.73;4.80;;;15.40;53.30;;;;;;5038875;28;20182;-83
2021/04/01 02:07:50;;;;;;;6.33;5.27;;;15.30;53.80;;;;;;5039319;28;20195;-84
2021/04/01 02:10:22;;;;;;;7.83;5.30;;;15.20;53.90;;;;;;5038587;28;20216;-83
2021/04/01 02:12:48;;;;;;;5.13;4.43;;;15.10;54.60;;;;;;5038959;28;20202;-84
2021/04/01 02:15:16;;;;;;;6.93;5.17;;;15.00;54.70;;;;;;5041772;28;20543;-85
2021/04/01 02:17:42;;;;;;;7.20;5.10;;;15.10;54.30;;;;;;5041363;28;20188;-84
2021/04/01 02:20:10;;;;;;;6.17;4.97;;;15.10;54.00;;;;;;5043979;28;20201;-84
2021/04/01 02:22:37;;;;;;;5.90;4.90;;;15.10;54.00;;;;;;5046824;28;20181;-84
2021/04/01 02:25:04;;;;;;;5.57;5.00;;;15.00;54.00;;;;;;5049677;28;20305;-85
2021/04/01 02:27:31;;;;;;;7.13;5.20;;;15.00;53.90;;;;;;5051538;28;20220;-85
2021/04/01 02:29:57;;;;;;;9.93;5.33;;;15.00;54.60;;;;;;5051346;28;20207;-84
2021/04/01 02:32:24;;;;;;;6.50;5.30;;;14.90;54.60;;;;;;5051054;28;20299;-85
2021/04/01 02:34:49;;;;;;;5.87;5.00;;;14.90;54.60;;;;;;5052605;28;20176;-85
2021/04/01 02:37:16;;;;;;;7.47;5.20;;;14.90;55.00;;;;;;5059777;28;20183;-86
2021/04/01 02:39:42;;;;;;;5.80;5.30;;;14.90;54.80;;;;;;5047296;28;20215;-84
2021/04/01 02:42:09;;;;;;;5.87;4.77;;;14.80;54.70;;;;;;5043263;28;20185;-83
2021/04/01 02:44:35;;;;;;;4.93;4.43;;;14.80;54.70;;;;;;5043668;28;20656;-84
2021/04/01 02:47:02;;;;;;;5.00;4.60;;;14.90;54.90;;;;;;5043123;28;20203;-84
2021/04/01 02:49:28;;;;;;;6.27;4.87;;;14.90;54.80;;;;;;5026682;28;20331;-84
2021/04/01 02:51:54;;;;;;;7.77;4.90;;;14.90;54.60;;;;;;5041242;28;20695;-84
2021/04/01 02:54:19;;;;;;;7.80;5.60;;;14.80;54.50;;;;;;5026070;28;20190;-83
2021/04/01 02:56:45;;;;;;;6.83;5.10;;;14.70;55.00;;;;;;5040788;28;20194;-85
2021/04/01 02:59:11;;;;;;;6.43;5.07;;;14.70;55.30;;;;;;5040857;28;20240;-84
2021/04/01 03:01:37;;;;;;;5.97;5.10;;;14.70;55.10;;;;;;5039508;28;20259;-84
2021/04/01 03:04:07;;;;;;;6.07;4.83;;;14.70;55.30;;;;;;5039882;28;20188;-85
2021/04/01 03:06:34;;;;;;;8.27;5.30;;;14.60;55.40;;;;;;5041872;28;20201;-84
2021/04/01 03:08:59;;;;;;;7.50;4.83;;;14.60;55.90;;;;;;5037535;28;20195;-84
2021/04/01 03:11:25;;;;;;;5.83;5.23;;;14.50;56.00;;;;;;5038742;28;20575;-84
2021/04/01 03:13:51;;;;;;;7.67;5.63;;;14.40;55.70;;;;;;5038911;28;20207;-83
2021/04/01 03:16:16;;;;;;;5.93;5.30;;;14.30;56.00;;;;;;5037972;28;20250;-83
2021/04/01 03:18:42;;;;;;;7.17;5.30;;;14.30;56.10;;;;;;5039180;28;20186;-83
2021/04/01 03:21:08;;;;;;;5.50;4.93;;;14.40;55.80;;;;;;5038238;28;20666;-83
2021/04/01 03:23:33;;;;;;;5.77;4.87;;;14.40;55.40;;;;;;5035216;28;20195;-84
2021/04/01 03:25:59;;;;;;;7.63;5.10;;;14.50;55.30;;;;;;5038550;28;20197;-84
2021/04/01 03:28:26;;;;;;;5.97;5.37;;;14.50;54.90;;;;;;5039565;28;20297;-84
2021/04/01 03:31:01;;;;;;;6.13;4.40;;;14.40;54.90;;;;;;5039573;28;20199;-84
2021/04/01 03:33:31;;;;;;;7.20;5.27;;;14.50;55.30;;;;;;5039661;28;20184;-84
2021/04/01 03:35:57;;;;;;;6.47;5.53;;;14.50;55.10;;;;;;5039012;28;20244;-84
2021/04/01 03:38:24;;;;;;;5.57;5.00;;;14.20;55.80;;;;;;5039273;28;20196;-84
2021/04/01 03:40:54;;;;;;;7.07;5.23;;;14.20;56.00;;;;;;5039349;28;20220;-85
2021/04/01 03:43:21;;;;;;;7.07;5.13;;;14.10;56.30;;;;;;5039539;28;20184;-85
2021/04/01 03:45:47;;;;;;;7.77;4.83;;;14.20;56.60;;;;;;5038219;28;20189;-86
2021/04/01 03:48:13;;;;;;;7.23;5.63;;;14.10;56.70;;;;;;5043246;28;20249;-84
2021/04/01 03:50:39;;;;;;;5.97;5.00;;;14.10;56.90;;;;;;5042059;28;20561;-84
2021/04/01 03:53:05;;;;;;;5.50;4.90;;;14.00;57.10;;;;;;5039070;28;20200;-84
2021/04/01 03:55:38;;;;;;;5.17;4.67;;;14.10;56.90;;;;;;5039040;28;20186;-84
2021/04/01 04:00:36;;;;;;;6.90;5.40;;;14.20;56.10;;;;;;5039911;28;20291;-85
2021/04/01 04:13:37;;;;;;;7.23;5.87;;;14.40;56.50;;;;;;5010744;28;20730;-84
2021/04/01 04:16:03;;;;;;;6.90;5.30;;;14.30;55.60;;;;;;5021964;28;20184;-84
2021/04/01 04:18:29;;;;;;;7.83;5.23;;;14.30;55.90;;;;;;5039718;28;20242;-84
2021/04/01 04:20:54;;;;;;;6.73;5.37;;;14.40;55.80;;;;;;5038307;28;20270;-84
2021/04/01 04:23:21;;;;;;;5.87;5.30;;;14.40;55.80;;;;;;5038386;28;20183;-83
2021/04/01 04:25:47;;;;;;;6.70;5.60;;;14.30;55.90;;;;;;5039092;28;20187;-84
2021/04/01 04:30:39;;;;;;;9.70;5.70;;;14.40;55.40;;;;;;5038438;28;20204;-83
2021/04/01 04:33:07;;;;;;;7.30;5.73;;;14.40;55.40;;;;;;5046697;28;20197;-83
2021/04/01 04:35:33;;;;;;;7.43;5.43;;;14.30;55.90;;;;;;5028098;28;20250;-85
2021/04/01 04:38:00;;;;;;;6.37;5.57;;;14.30;56.00;;;;;;5044381;28;20584;-83
2021/04/01 04:40:26;;;;;;;7.10;5.47;;;14.30;56.10;;;;;;5043267;28;20196;-83
2021/04/01 04:42:51;;;;;;;9.93;6.93;;;14.30;56.00;;;;;;5043818;28;20179;-83
2021/04/01 04:45:17;;;;;;;7.03;6.37;;;14.30;56.00;;;;;;5034357;28;20206;-83
2021/04/01 04:47:43;;;;;;;8.60;6.57;;;14.20;56.10;;;;;;5042695;28;20195;-83
2021/04/01 04:50:09;;;;;;;6.57;5.50;;;14.30;56.40;;;;;;5048014;28;20208;-83
2021/04/01 04:52:36;;;;;;;9.23;6.07;;;14.30;56.20;;;;;;5014376;28;20319;-83
2021/04/01 04:55:04;;;;;;;7.80;6.03;;;14.20;56.10;;;;;;5042722;28;20183;-84
2021/04/01 05:05:58;;;;;;;7.73;7.00;;;13.90;57.00;;;;;;5041776;28;20275;-84
2021/04/01 05:08:24;;;;;;;7.03;6.07;;;13.90;57.50;;;;;;5039478;28;20195;-83
2021/04/01 05:10:50;;;;;;;8.70;7.03;;;13.80;57.80;;;;;;5045343;28;20231;-83
2021/04/01 05:13:16;;;;;;;9.10;7.27;;;13.70;57.90;;;;;;5058577;28;20203;-82
2021/04/01 05:15:50;;;;;;;8.23;6.30;;;13.60;58.90;;;;;;5042869;28;20727;-85
2021/04/01 05:18:29;;;;;;;8.17;7.07;;;13.40;59.40;;;;;;5039627;28;20736;-83
2021/04/01 05:20:56;;;;;;;8.10;7.30;;;13.30;60.20;;;;;;5039521;28;20219;-83
2021/04/01 05:23:43;;;;;;;10.97;7.10;;;13.40;60.10;;;;;;5038254;28;20248;-84
2021/04/01 05:29:27;;;;;;;9.00;6.70;;;13.30;60.90;;;;;;5042302;28;20184;-83
2021/04/01 05:31:41;;;;;;;15.50;6.77;;;13.30;61.10;;;;;;5038057;28;20185;-83
2021/04/01 05:34:07;;;;;;;8.40;7.00;;;13.20;61.50;;;;;;5040336;28;20215;-83
2021/04/01 05:36:35;;;;;;;9.83;6.63;;;13.20;61.70;;;;;;5039031;28;20192;-85
2021/04/01 05:39:01;;;;;;;10.40;7.50;;;13.10;62.00;;;;;;5040735;28;20192;-83
2021/04/01 05:41:29;;;;;;;9.13;6.67;;;13.10;62.10;;;;;;5033521;28;20623;-83
2021/04/01 05:44:07;;;;;;;10.63;7.20;;;13.10;62.20;;;;;;5044805;28;20174;-83
2021/04/01 05:49:16;;;;;;;8.57;6.87;;;13.00;62.50;;;;;;5044500;28;20200;-83
2021/04/01 06:03:01;;;;;;;9.90;6.83;;;13.40;61.10;;;;;;5045282;28;20177;-82
2021/04/01 06:05:30;;;;;;;10.03;7.00;;;13.40;61.00;;;;;;5045516;28;20172;-82
2021/04/01 06:08:08;;;;;;;10.10;7.07;;;13.40;61.50;;;;;;5045244;28;20184;-86
2021/04/01 06:10:35;;;;;;;11.73;7.07;;;13.30;61.60;;;;;;5047345;28;20220;-86
2021/04/01 06:13:09;;;;;;;9.87;6.93;;;13.30;61.70;;;;;;5048690;28;20676;-85
2021/04/01 06:15:36;;;;;;;9.10;7.37;;;13.30;62.10;;;;;;5047703;28;20177;-83
2021/04/01 06:18:12;;;;;;;12.60;6.50;;;13.30;62.10;;;;;;5048475;28;20213;-82
2021/04/01 06:20:50;;;;;;;8.17;6.50;;;13.30;62.40;;;;;;5038382;28;20217;-82
2021/04/01 06:23:29;;;;;;;7.60;6.83;;;13.30;62.40;;;;;;5037942;28;20172;-83
2021/04/01 06:25:56;;;;;;;14.87;7.40;;;13.30;62.20;;;;;;5039360;28;20200;-82
2021/04/01 06:28:58;;;;;;;10.00;6.40;;;13.30;62.20;;;;;;5039766;28;20188;-83
2021/04/01 06:31:29;;;;;;;8.73;6.90;;;13.30;62.10;;;;;;5029343;28;20219;-83
2021/04/01 06:33:57;;;;;;;11.37;7.47;;;13.20;63.20;;;;;;5039279;28;20207;-83
2021/04/01 06:36:27;;;;;;;10.73;7.20;;;13.30;63.60;;;;;;5041283;28;20188;-83
2021/04/01 06:38:53;;;;;;;8.40;6.97;;;13.40;62.20;;;;;;5040292;28;20172;-83
2021/04/01 06:41:27;;;;;;;13.43;7.47;;;13.50;62.50;;;;;;5038253;28;20223;-83
2021/04/01 06:44:08;;;;;;;13.87;6.77;;;13.60;62.80;;;;;;5033246;28;20191;-83
2021/04/01 06:46:44;;;;;;;10.67;7.07;;;13.70;63.70;;;;;;5030087;28;20187;-83
2021/04/01 06:52:03;;;;;;;11.70;7.50;;;13.80;62.30;;;;;;5009598;28;20188;-83
2021/04/01 06:54:37;;;;;;;9.30;7.20;;;13.80;62.40;;;;;;5028616;28;20232;-83
2021/04/01 07:00:57;;;;;;;11.60;7.30;;;13.90;62.30;;;;;;5026737;28;20229;-83
2021/04/01 07:03:13;;;;;;;10.17;6.97;;;14.00;61.60;;;;;;5018457;28;20232;-83
2021/04/01 07:08:16;;;;;;;8.07;6.97;;;14.00;60.10;;;;;;5026638;28;20252;-83
2021/04/01 07:13:20;;;;;;;9.13;6.57;;;13.90;60.90;;;;;;5025458;28;20552;-83
2021/04/01 07:15:52;;;;;;;9.40;7.27;;;14.00;60.20;;;;;;5025844;28;20185;-83
2021/04/01 07:21:06;;;;;;;8.37;7.20;;;14.00;60.40;;;;;;5023670;28;20216;-83
2021/04/01 07:48:55;;;;;;;7.43;6.47;;;15.50;56.50;;;;;;5026565;28;20205;-82
2021/04/01 07:54:09;;;;;;;9.23;6.70;;;15.70;55.50;;;;;;5020509;28;20223;-81
2021/04/01 07:56:51;;;;;;;7.63;6.83;;;15.80;56.20;;;;;;5039795;28;20189;-83
2021/04/01 08:04:25;;;;;;;9.37;7.07;;;16.30;54.80;;;;;;5024403;28;20985;-82
2021/04/01 08:06:51;;;;;;;12.93;6.93;;;16.40;54.20;;;;;;5022560;28;20203;-83
2021/04/01 08:09:23;;;;;;;10.03;6.93;;;16.50;55.50;;;;;;5023282;28;20182;-83
2021/04/01 08:11:54;;;;;;;11.80;6.77;;;16.60;53.40;;;;;;5024455;28;20195;-81
2021/04/01 08:14:36;;;;;;;8.87;6.70;;;16.60;52.80;;;;;;5023786;28;20208;-82
2021/04/01 08:17:21;;;;;;;9.53;6.70;;;16.80;52.10;;;;;;5024163;28;20551;-82
2021/04/01 08:19:50;;;;;;;8.87;6.60;;;16.90;53.80;;;;;;5024770;28;20205;-82
2021/04/01 08:22:19;;;;;;;6.83;6.23;;;17.10;51.40;;;;;;5006643;28;20189;-85
2021/04/01 08:24:53;;;;;;;9.40;6.23;;;16.90;53.40;;;;;;5011701;28;20177;-83
2021/04/01 08:27:32;;;;;;;8.03;6.80;;;17.00;53.20;;;;;;5026703;28;20190;-82
2021/04/01 08:35:32;;;;;;;11.47;6.40;;;16.90;51.20;;;;;;5024143;28;20278;-82
2021/04/01 08:38:11;;;;;;;10.40;6.57;;;17.00;51.00;;;;;;5024905;28;20182;-82
2021/04/01 08:40:39;;;;;;;10.13;6.50;;;17.00;51.90;;;;;;5028290;28;20228;-82
2021/04/01 08:43:35;;;;;;;7.17;6.00;;;17.00;51.70;;;;;;5041227;28;20193;-82
2021/04/01 08:46:29;;;;;;;8.80;6.07;;;17.00;51.80;;;;;;5033636;28;20181;-83
2021/04/01 08:49:02;;;;;;;7.37;5.90;;;17.30;51.10;;;;;;5027227;28;20666;-82
2021/04/01 08:51:38;;;;;;;9.43;6.57;;;17.40;49.60;;;;;;5026020;28;20248;-83
2021/04/01 08:54:19;;;;;;;8.33;6.70;;;17.60;49.30;;;;;;5025496;28;20248;-83
2021/04/01 08:56:59;;;;;;;10.47;6.70;;;17.80;49.20;;;;;;5025251;28;20199;-83
2021/04/01 08:59:48;;;;;;;8.77;6.33;;;18.20;48.70;;;;;;5025832;28;20187;-83
2021/04/01 09:02:23;;;;;;;8.73;5.97;;;18.40;48.50;;;;;;5024485;28;20189;-82
2021/04/01 09:04:51;;;;;;;11.80;6.90;;;18.50;46.80;;;;;;5027281;28;20213;-85
2021/04/01 09:07:37;;;;;;;8.13;6.43;;;18.60;47.50;;;;;;5026928;28;20200;-82
2021/04/01 09:10:31;;;;;;;8.77;6.50;;;18.70;46.50;;;;;;5029075;28;20218;-82
2021/04/01 09:13:18;;;;;;;7.03;6.30;;;18.80;47.40;;;;;;5026296;28;20227;-82
2021/04/01 09:15:53;;;;;;;11.47;6.20;;;19.00;46.00;;;;;;5027374;28;20271;-87
2021/04/01 09:18:22;;;;;;;11.27;6.37;;;19.30;43.40;;;;;;5024704;28;20260;-83
2021/04/01 09:20:49;;;;;;;12.60;7.03;;;19.40;43.20;;;;;;5025447;28;20286;-84
2021/04/01 09:23:18;;;;;;;11.90;7.00;;;19.40;43.50;;;;;;5030237;28;20193;-82
2021/04/01 09:25:46;;;;;;;7.57;5.70;;;19.40;44.40;;;;;;5030171;28;20229;-83
2021/04/01 09:28:13;;;;;;;8.70;5.67;;;19.60;45.40;;;;;;5030655;28;20210;-83
2021/04/01 09:30:40;;;;;;;8.53;5.93;;;19.70;43.70;;;;;;5029847;28;20229;-83
2021/04/01 09:33:19;;;;;;;10.90;6.13;;;20.00;43.30;;;;;;5028567;28;20212;-82
2021/04/01 09:35:46;;;;;;;6.75;5.72;;;20.20;43.40;;;;;;5012235;28;20176;-83
2021/04/01 09:38:12;;;;;;;7.32;6.45;;;20.40;42.30;;;;;;5030430;28;20190;-83
2021/04/01 09:40:40;;;;;;;9.88;6.00;;;20.70;41.10;;;;;;5013555;28;20210;-82
2021/04/01 09:43:21;;;;;;;9.43;6.22;;;20.70;42.10;;;;;;5028808;28;20186;-82
2021/04/01 09:45:48;;;;;;;7.90;5.68;;;20.70;41.70;;;;;;5028760;28;20274;-83
2021/04/01 09:48:15;;;;;;;7.05;5.30;;;20.70;41.40;;;;;;5031085;28;20885;-83
2021/04/01 09:50:46;;;;;;;11.02;5.65;;;21.10;40.00;;;;;;5028058;28;20209;-81
2021/04/01 09:53:23;;;;;;;7.97;5.97;;;21.10;40.70;;;;;;5044377;28;20219;-82
2021/04/01 09:55:51;;;;;;;8.55;5.57;;;21.30;39.30;;;;;;5028671;28;20279;-83
2021/04/01 09:58:17;;;;;;;8.23;5.20;;;21.40;40.40;;;;;;5030999;28;20188;-84
2021/04/01 10:03:26;;;;;;;6.32;5.43;;;21.40;39.20;;;;;;5016618;28;20280;-82
2021/04/01 10:05:52;;;;;;;9.05;5.97;;;21.50;38.20;;;;;;5034359;28;20192;-82
2021/04/01 10:08:31;;;;;;;8.90;5.32;;;21.80;37.90;;;;;;5034446;28;20189;-83
2021/04/01 10:11:22;;;;;;;7.63;5.20;;;21.90;37.80;;;;;;5032870;28;20205;-83
2021/04/01 10:13:48;;;;;;;6.60;4.97;;;22.10;38.50;;;;;;5015715;28;20235;-82
2021/04/01 10:16:24;;;;;;;5.80;5.20;;;22.40;36.80;;;;;;5033091;28;20197;-82
2021/04/01 10:18:51;;;;;;;6.40;4.85;;;22.40;36.80;;;;;;5038631;28;20182;-82
2021/04/01 10:21:17;;;;;;;8.95;5.60;;;22.60;35.90;;;;;;5028250;28;20272;-83
2021/04/01 10:23:53;;;;;;;7.38;5.45;;;22.70;36.50;;;;;;5029550;28;20196;-83
2021/04/01 10:26:30;;;;;;;9.65;5.47;;;22.80;35.70;;;;;;5028050;28;20200;-82
2021/04/01 10:29:15;;;;;;;5.53;4.85;;;23.10;35.70;;;;;;5027016;28;20271;-82
2021/04/01 10:31:46;;;;;;;12.95;5.60;;;23.20;34.10;;;;;;5027443;28;20732;-83
2021/04/01 10:34:42;;;;;;;11.13;5.43;;;23.20;35.20;;;;;;5029246;28;20212;-82
2021/04/01 10:37:10;;;;;;;6.05;4.93;;;23.40;34.10;;;;;;5028053;28;20324;-83
2021/04/01 10:39:37;;;;;;;9.30;5.00;;;23.60;34.20;;;;;;5029405;28;20184;-83
2021/04/01 10:42:09;;;;;;;13.10;5.47;;;23.90;34.10;;;;;;5037191;28;20185;-83
2021/04/01 10:44:36;;;;;;;10.82;5.10;;;24.20;34.10;;;;;;5031317;28;20197;-83
2021/04/01 10:47:05;;;;;;;8.15;5.20;;;24.40;33.80;;;;;;5033418;28;20432;-82
2021/04/01 10:49:36;;;;;;;11.65;5.05;;;24.60;32.70;;;;;;5032328;28;20177;-83
2021/04/01 10:52:09;;;;;;;7.05;5.55;;;24.30;32.90;;;;;;5034279;28;20182;-82
2021/04/01 10:54:44;;;;;;;5.00;4.55;;;24.30;31.50;;;;;;5034020;28;20184;-82
2021/04/01 10:57:12;;;;;;;8.43;5.95;;;24.10;32.90;;;;;;5030188;28;20678;-83
2021/04/01 10:59:39;;;;;;;5.80;4.60;;;23.80;33.30;;;;;;5032178;28;20236;-83
2021/04/01 11:02:17;;;;;;;7.95;4.70;;;23.80;33.90;;;;;;5030264;28;20200;-83
2021/04/01 11:04:48;;;;;;;7.32;5.15;;;24.10;33.20;;;;;;5031510;28;20182;-83
2021/04/01 11:07:15;;;;;;;9.10;5.38;;;24.30;33.10;;;;;;5032109;28;20200;-83
2021/04/01 11:09:50;;;;;;;13.52;5.63;;;24.70;33.00;;;;;;5030408;28;20205;-83
2021/04/01 11:12:18;;;;;;;11.10;5.68;;;24.90;32.60;;;;;;5029827;28;20172;-83
2021/04/01 11:14:45;;;;;;;6.68;5.13;;;25.10;32.40;;;;;;5031531;28;20184;-83
2021/04/01 11:17:15;;;;;;;9.02;5.80;;;25.20;32.90;;;;;;5028582;28;20185;-83
2021/04/01 11:19:41;;;;;;;10.95;5.97;;;25.40;32.10;;;;;;5029246;28;20201;-83
2021/04/01 11:22:08;;;;;;;6.72;5.68;;;25.40;33.00;;;;;;5026354;28;20185;-83
2021/04/01 11:24:36;;;;;;;11.98;6.10;;;25.50;32.50;;;;;;5011818;28;20601;-83
2021/04/01 11:27:11;;;;;;;7.85;5.88;;;25.20;34.00;;;;;;5010113;28;20657;-83
2021/04/01 11:29:40;;;;;;;7.68;5.88;;;25.50;32.10;;;;;;5028982;28;20211;-83
2021/04/01 11:32:22;;;;;;;7.38;5.90;;;25.80;30.50;;;;;;5009339;28;20209;-83
2021/04/01 11:34:49;;;;;;;7.40;5.90;;;25.80;32.00;;;;;;5010485;28;20409;-83
2021/04/01 11:37:22;;;;;;;9.88;6.30;;;26.10;31.80;;;;;;5030070;28;20173;-83
2021/04/01 11:39:49;;;;;;;9.38;6.10;;;26.40;30.50;;;;;;5030431;28;20258;-83
2021/04/01 11:42:18;;;;;;;7.00;5.80;;;26.20;30.30;;;;;;5025188;28;20181;-83
2021/04/01 11:44:45;;;;;;;7.65;5.70;;;26.30;30.50;;;;;;5024777;28;20234;-83
2021/04/01 11:47:15;;;;;;;9.43;6.45;;;26.40;30.90;;;;;;5025244;28;20177;-82
2021/04/01 11:49:42;;;;;;;10.73;6.07;;;26.70;30.30;;;;;;5029833;28;20208;-81
2021/04/01 11:52:10;;;;;;;7.25;6.07;;;26.80;29.40;;;;;;5029847;28;20213;-83
2021/04/01 11:54:37;;;;;;;8.35;5.90;;;26.70;29.80;;;;;;5029091;28;20260;-84
2021/04/01 11:57:03;;;;;;;7.18;5.80;;;26.50;30.00;;;;;;5026993;28;20196;-84
2021/04/01 11:59:34;;;;;;;9.15;5.75;;;26.70;29.90;;;;;;5026279;28;20181;-85
2021/04/01 12:02:04;;;;;;;7.22;5.68;;;27.00;30.00;;;;;;5026763;28;20173;-85
2021/04/01 12:04:33;;;;;;;6.93;5.88;;;27.20;29.20;;;;;;5026545;28;20182;-83
2021/04/01 12:06:59;;;;;;;8.10;5.95;;;27.50;28.80;;;;;;5025568;28;20728;-84
2021/04/01 12:09:28;;;;;;;7.85;6.18;;;27.70;28.40;;;;;;5009798;28;20177;-85
2021/04/01 12:11:54;;;;;;;9.05;5.75;;;27.90;28.30;;;;;;5026051;28;20189;-84
2021/04/01 12:14:19;;;;;;;5.93;5.32;;;28.00;27.10;;;;;;5025758;28;21019;-84
2021/04/01 12:16:46;;;;;;;7.30;5.60;;;28.00;27.50;;;;;;5022837;28;20208;-84
2021/04/01 12:19:12;;;;;;;9.23;5.50;;;28.10;27.20;;;;;;5027429;28;20189;-84
2021/04/01 12:21:39;;;;;;;6.35;5.20;;;28.20;27.10;;;;;;5026323;28;20240;-83
2021/04/01 12:24:06;;;;;;;9.45;5.18;;;27.90;28.10;;;;;;5027327;28;20197;-84
2021/04/01 12:26:46;;;;;;;7.75;6.47;;;28.40;26.80;;;;;;5026789;28;20192;-84
2021/04/01 12:29:12;;;;;;;7.60;6.03;;;28.60;27.30;;;;;;5025896;28;20270;-84
2021/04/01 12:31:40;;;;;;;8.95;5.70;;;28.50;27.10;;;;;;5025859;28;20295;-84
2021/04/01 12:34:10;;;;;;;7.28;5.70;;;27.80;27.40;;;;;;5030681;28;20216;-83
2021/04/01 12:36:39;;;;;;;6.95;5.20;;;28.10;27.70;;;;;;5028698;28;20710;-84
2021/04/01 12:39:09;;;;;;;6.28;5.75;;;28.40;27.70;;;;;;5028500;28;20193;-84
2021/04/01 12:41:43;;;;;;;6.15;5.38;;;28.70;26.60;;;;;;5027489;28;20235;-84
2021/04/01 12:44:08;;;;;;;12.68;6.10;;;28.80;26.90;;;;;;5025980;28;20182;-84
2021/04/01 12:46:40;;;;;;;5.90;5.38;;;28.50;27.20;;;;;;5025582;28;20255;-84
2021/04/01 12:49:07;;;;;;;7.97;5.68;;;28.80;26.80;;;;;;5024662;28;20239;-84
2021/04/01 12:51:57;;;;;;;8.95;5.68;;;29.10;27.10;;;;;;5024747;28;20219;-84
2021/04/01 12:54:29;;;;;;;7.40;6.25;;;29.40;27.60;;;;;;5024329;28;20573;-84
2021/04/01 12:59:56;;;;;;;6.97;6.18;;;29.30;26.50;;;;;;4997227;28;20229;-84
2021/04/01 13:02:23;;;;;;;7.90;5.63;;;28.90;26.40;;;;;;5031035;28;20191;-84
2021/04/01 13:04:57;;;;;;;13.23;5.20;;;28.70;26.60;;;;;;5031505;28;20181;-84
2021/04/01 13:07:27;;;;;;;5.30;4.53;;;28.90;25.60;;;;;;5030813;28;20636;-85
2021/04/01 13:12:38;;;;;;;10.85;5.80;;;29.60;25.80;;;;;;5028207;28;20291;-86
2021/04/01 13:15:04;;;;;;;9.02;6.15;;;29.20;26.20;;;;;;5024993;28;20256;-85
2021/04/01 13:17:30;;;;;;;11.90;6.35;;;29.40;26.30;;;;;;5026118;28;20192;-85
2021/04/01 13:19:56;;;;;;;14.00;10.57;;;29.90;25.40;;;;;;5025576;28;20272;-85
2021/04/01 13:22:25;;;;;;;11.95;6.07;;;29.40;25.30;;;;;;5025325;28;20189;-85
2021/04/01 13:27:18;;;;;;;7.43;6.03;;;29.70;25.70;;;;;;5024965;28;20664;-85
2021/04/01 13:29:52;;;;;;;7.68;5.97;;;29.70;25.40;;;;;;5027290;28;20202;-85
2021/04/01 13:32:30;;;;;;;16.48;5.90;;;29.70;25.50;;;;;;5028259;28;20182;-85
2021/04/01 13:35:04;;;;;;;7.82;5.50;;;29.80;25.80;;;;;;5027958;28;20173;-85
2021/04/01 13:37:37;;;;;;;8.18;5.70;;;29.60;25.60;;;;;;5035192;28;20176;-85
2021/04/01 13:40:10;;;;;;;10.43;5.80;;;29.60;25.60;;;;;;5036317;28;20261;-84
2021/04/01 13:42:37;;;;;;;7.60;5.90;;;29.50;25.80;;;;;;5039041;28;20184;-85
2021/04/01 13:45:13;;;;;;;12.40;5.82;;;29.70;24.90;;;;;;5021806;28;20201;-85
2021/04/01 13:47:48;;;;;;;7.35;5.55;;;29.60;25.40;;;;;;5040839;28;20193;-85
2021/04/01 13:50:17;;;;;;;7.75;6.18;;;29.90;25.10;;;;;;5039730;28;20426;-86
2021/04/01 13:55:22;;;;;;;8.45;6.22;;;30.70;24.40;;;;;;5037730;28;20237;-85
2021/04/01 14:09:14;;;;;;;10.10;6.53;;;31.00;24.60;;;;;;5029481;28;20200;-85
2021/04/01 14:11:42;;;;;;;24.52;10.45;;;30.70;24.80;;;;;;5029442;28;20208;-85
2021/04/01 14:14:09;;;;;;;31.77;10.43;;;30.70;25.00;;;;;;5029274;28;20208;-84
2021/04/01 14:16:35;;;;;;;10.63;8.90;;;30.20;25.20;;;;;;5029071;28;20185;-84
2021/04/01 14:19:02;;;;;;;17.10;9.82;;;30.70;25.10;;;;;;5026162;28;20185;-85
2021/04/01 14:21:28;;;;;;;15.18;12.82;;;30.70;25.10;;;;;;5011310;28;20216;-85
2021/04/01 14:23:54;;;;;;;19.02;13.20;;;30.20;25.70;;;;;;5026565;28;20185;-85
2021/04/01 14:28:50;;;;;;;20.38;14.63;;;29.90;25.80;;;;;;5030621;28;20240;-85
2021/04/01 14:31:16;;;;;;;16.92;13.98;;;30.20;25.90;;;;;;5027371;28;20212;-84
2021/04/01 14:33:43;;;;;;;14.15;12.75;;;30.30;25.30;;;;;;5029189;28;20214;-84
2021/04/01 14:36:12;;;;;;;14.63;12.38;;;30.20;25.60;;;;;;5030152;28;20536;-86
2021/04/01 14:38:39;;;;;;;17.48;13.40;;;30.90;25.10;;;;;;5029456;28;20189;-85
2021/04/01 14:41:55;;;;;;;12.85;11.55;;;31.10;24.80;;;;;;5030058;28;20241;-85
2021/04/01 14:46:30;;;;;;;25.45;12.07;;;30.90;24.30;;;;;;5032137;28;20224;-85
2021/04/01 14:48:57;;;;;;;12.90;11.20;;;30.50;24.90;;;;;;5030216;28;20193;-84
2021/04/01 14:51:23;;;;;;;14.50;13.00;;;30.60;24.90;;;;;;5027192;28;20247;-84
2021/04/01 14:53:52;;;;;;;15.68;13.00;;;30.60;24.70;;;;;;5027244;28;20223;-84
2021/04/01 14:56:19;;;;;;;19.95;14.55;;;30.50;24.80;;;;;;5025887;28;20181;-84
2021/04/01 14:58:46;;;;;;;17.15;14.30;;;30.60;24.30;;;;;;5026626;28;20633;-84
2021/04/01 15:01:15;;;;;;;15.82;14.23;;;30.60;24.40;;;;;;5026873;28;20599;-85